sensor_id;sensor_type;location;lat;lon;timestamp;temperature;humidity
25112;DHT22;13092;51.996;4.458;2023-01-23T00:00:13;3.90;99.90
25112;DHT22;13092;51.996;4.458;2023-01-23T00:02:42;3.90;99.90
25112;DHT22;13092;51.996;4.458;2023-01-23T00:05:10;3.90;99.90
25112;DHT22;13092;51.996;4.458;2023-01-23T01:27:20;3.60;99.90
25112;DHT22;13092;51.996;4.458;2023-01-23T01:29:57;3.60;99.90
25112;DHT22;13092;51.996;4.458;2023-01-23T01:32:29;3.60;99.90
25112;DHT22;13092;51.996;4.458;2023-01-23T01:34:58;3.50;99.90
25112;DHT22;13092;51.996;4.458;2023-01-23T01:37:32;3.60;99.90
25112;DHT22;13092;51.996;4.458;2023-01-23T01:40:00;3.50;99.90
25112;DHT22;13092;51.996;4.458;2023-01-23T01:42:30;3.40;99.90
25112;DHT22;13092;51.996;4.458;2023-01-23T01:45:53;3.60;99.90
25112;DHT22;13092;51.996;4.458;2023-01-23T01:47:56;3.50;99.90
25112;DHT22;13092;51.996;4.458;2023-01-23T01:50:28;3.50;99.90
25112;DHT22;13092;51.996;4.458;2023-01-23T01:52:57;3.50;99.90
25112;DHT22;13092;51.996;4.458;2023-01-23T01:55:29;3.60;99.90
25112;DHT22;13092;51.996;4.458;2023-01-23T01:58:01;3.60;99.90
25112;DHT22;13092;51.996;4.458;2023-01-23T02:00:32;3.60;99.90
25112;DHT22;13092;51.996;4.458;2023-01-23T02:03:04;3.60;99.90
25112;DHT22;13092;51.996;4.458;2023-01-23T02:05:41;3.60;99.90
25112;DHT22;13092;51.996;4.458;2023-01-23T02:08:18;3.60;99.90
25112;DHT22;13092;51.996;4.458;2023-01-23T02:10:56;3.60;99.90
25112;DHT22;13092;51.996;4.458;2023-01-23T02:13:32;3.50;99.90
25112;DHT22;13092;51.996;4.458;2023-01-23T02:16:04;3.60;99.90
25112;DHT22;13092;51.996;4.458;2023-01-23T02:18:36;3.50;99.90
25112;DHT22;13092;51.996;4.458;2023-01-23T02:21:12;3.60;99.90
25112;DHT22;13092;51.996;4.458;2023-01-23T02:23:48;3.60;99.90
25112;DHT22;13092;51.996;4.458;2023-01-23T02:26:24;3.60;99.90
25112;DHT22;13092;51.996;4.458;2023-01-23T02:28:55;3.60;99.90
25112;DHT22;13092;51.996;4.458;2023-01-23T02:31:26;3.60;99.90
25112;DHT22;13092;51.996;4.458;2023-01-23T02:33:56;3.50;99.90
25112;DHT22;13092;51.996;4.458;2023-01-23T02:36:26;3.60;99.90
25112;DHT22;13092;51.996;4.458;2023-01-23T02:39:02;3.60;99.90
25112;DHT22;13092;51.996;4.458;2023-01-23T02:41:35;3.60;99.90
25112;DHT22;13092;51.996;4.458;2023-01-23T02:44:12;3.60;99.90
25112;DHT22;13092;51.996;4.458;2023-01-23T02:46:43;3.40;99.90
25112;DHT22;13092;51.996;4.458;2023-01-23T02:49:12;3.60;99.90
25112;DHT22;13092;51.996;4.458;2023-01-23T02:51:41;3.70;99.90
25112;DHT22;13092;51.996;4.458;2023-01-23T02:54:10;3.60;99.90
25112;DHT22;13092;51.996;4.458;2023-01-23T02:56:40;3.60;99.90
25112;DHT22;13092;51.996;4.458;2023-01-23T02:59:10;3.60;99.90
25112;DHT22;13092;51.996;4.458;2023-01-23T03:01:56;3.60;99.90
25112;DHT22;13092;51.996;4.458;2023-01-23T03:04:33;3.50;99.90
25112;DHT22;13092;51.996;4.458;2023-01-23T03:07:04;3.50;99.90
25112;DHT22;13092;51.996;4.458;2023-01-23T03:09:33;3.70;99.90
25112;DHT22;13092;51.996;4.458;2023-01-23T03:12:06;3.70;99.90
25112;DHT22;13092;51.996;4.458;2023-01-23T03:14:35;3.60;99.90
25112;DHT22;13092;51.996;4.458;2023-01-23T03:17:04;3.60;99.90
25112;DHT22;13092;51.996;4.458;2023-01-23T03:19:34;3.70;99.90
25112;DHT22;13092;51.996;4.458;2023-01-23T03:22:04;3.70;99.90
25112;DHT22;13092;51.996;4.458;2023-01-23T03:24:34;3.60;99.90
25112;DHT22;13092;51.996;4.458;2023-01-23T03:27:05;3.70;99.90
25112;DHT22;13092;51.996;4.458;2023-01-23T03:29:34;3.70;99.90
25112;DHT22;13092;51.996;4.458;2023-01-23T03:32:19;3.70;99.90
25112;DHT22;13092;51.996;4.458;2023-01-23T03:34:49;3.70;99.90
25112;DHT22;13092;51.996;4.458;2023-01-23T03:37:18;3.70;99.90
25112;DHT22;13092;51.996;4.458;2023-01-23T03:39:48;3.70;99.90
25112;DHT22;13092;51.996;4.458;2023-01-23T03:42:36;3.70;99.90
25112;DHT22;13092;51.996;4.458;2023-01-23T03:45:08;3.80;99.90
25112;DHT22;13092;51.996;4.458;2023-01-23T03:47:38;3.60;99.90
25112;DHT22;13092;51.996;4.458;2023-01-23T03:50:08;3.60;99.90
25112;DHT22;13092;51.996;4.458;2023-01-23T03:52:37;3.70;99.90
25112;DHT22;13092;51.996;4.458;2023-01-23T03:55:07;3.70;99.90
25112;DHT22;13092;51.996;4.458;2023-01-23T03:57:37;3.70;99.90
25112;DHT22;13092;51.996;4.458;2023-01-23T04:00:07;3.70;99.90
25112;DHT22;13092;51.996;4.458;2023-01-23T04:02:44;3.70;99.90
25112;DHT22;13092;51.996;4.458;2023-01-23T04:05:15;3.70;99.90
25112;DHT22;13092;51.996;4.458;2023-01-23T04:07:44;3.70;99.90
25112;DHT22;13092;51.996;4.458;2023-01-23T04:10:17;3.70;99.90
25112;DHT22;13092;51.996;4.458;2023-01-23T04:12:47;3.60;99.90
25112;DHT22;13092;51.996;4.458;2023-01-23T04:15:22;3.70;99.90
25112;DHT22;13092;51.996;4.458;2023-01-23T04:17:50;3.80;99.90
25112;DHT22;13092;51.996;4.458;2023-01-23T04:20:19;3.70;99.90
25112;DHT22;13092;51.996;4.458;2023-01-23T04:22:48;3.60;99.90
25112;DHT22;13092;51.996;4.458;2023-01-23T04:25:16;3.60;99.90
25112;DHT22;13092;51.996;4.458;2023-01-23T04:27:47;3.60;99.90
25112;DHT22;13092;51.996;4.458;2023-01-23T04:30:19;3.50;99.90
25112;DHT22;13092;51.996;4.458;2023-01-23T04:32:49;3.70;99.90
25112;DHT22;13092;51.996;4.458;2023-01-23T04:35:18;3.80;99.90
25112;DHT22;13092;51.996;4.458;2023-01-23T04:37:51;3.60;99.90
25112;DHT22;13092;51.996;4.458;2023-01-23T04:40:22;3.60;99.90
25112;DHT22;13092;51.996;4.458;2023-01-23T04:42:52;3.60;99.90
25112;DHT22;13092;51.996;4.458;2023-01-23T04:45:21;3.60;99.90
25112;DHT22;13092;51.996;4.458;2023-01-23T04:47:49;3.60;99.90
25112;DHT22;13092;51.996;4.458;2023-01-23T04:50:18;3.60;99.90
25112;DHT22;13092;51.996;4.458;2023-01-23T04:52:49;3.60;99.90
25112;DHT22;13092;51.996;4.458;2023-01-23T04:55:27;3.70;99.90
25112;DHT22;13092;51.996;4.458;2023-01-23T04:57:57;3.60;99.90
25112;DHT22;13092;51.996;4.458;2023-01-23T05:00:28;3.70;99.90
25112;DHT22;13092;51.996;4.458;2023-01-23T05:03:11;3.50;99.90
25112;DHT22;13092;51.996;4.458;2023-01-23T05:05:40;3.50;99.90
25112;DHT22;13092;51.996;4.458;2023-01-23T05:08:12;3.60;99.90
25112;DHT22;13092;51.996;4.458;2023-01-23T05:10:41;3.60;99.90
25112;DHT22;13092;51.996;4.458;2023-01-23T05:13:12;3.60;99.90
25112;DHT22;13092;51.996;4.458;2023-01-23T05:15:41;3.70;99.90
25112;DHT22;13092;51.996;4.458;2023-01-23T05:18:13;3.60;99.90
25112;DHT22;13092;51.996;4.458;2023-01-23T05:20:44;3.10;99.90
25112;DHT22;13092;51.996;4.458;2023-01-23T05:23:13;3.60;99.90
25112;DHT22;13092;51.996;4.458;2023-01-23T05:25:41;3.50;99.90
25112;DHT22;13092;51.996;4.458;2023-01-23T05:28:11;3.70;99.90
25112;DHT22;13092;51.996;4.458;2023-01-23T05:30:40;3.70;99.90
25112;DHT22;13092;51.996;4.458;2023-01-23T05:33:09;3.70;99.90
25112;DHT22;13092;51.996;4.458;2023-01-23T05:35:39;3.70;99.90
25112;DHT22;13092;51.996;4.458;2023-01-23T05:38:13;3.80;99.90
25112;DHT22;13092;51.996;4.458;2023-01-23T05:40:44;3.90;99.90
25112;DHT22;13092;51.996;4.458;2023-01-23T05:43:17;3.70;99.90
25112;DHT22;13092;51.996;4.458;2023-01-23T05:45:47;3.70;99.90
25112;DHT22;13092;51.996;4.458;2023-01-23T05:48:16;3.90;99.90
25112;DHT22;13092;51.996;4.458;2023-01-23T05:50:46;3.90;99.90
25112;DHT22;13092;51.996;4.458;2023-01-23T05:53:18;3.80;99.90
25112;DHT22;13092;51.996;4.458;2023-01-23T05:55:47;3.80;99.90
25112;DHT22;13092;51.996;4.458;2023-01-23T05:58:22;3.80;99.90
25112;DHT22;13092;51.996;4.458;2023-01-23T06:00:51;3.80;99.90
25112;DHT22;13092;51.996;4.458;2023-01-23T06:03:19;3.80;99.90
25112;DHT22;13092;51.996;4.458;2023-01-23T06:05:48;3.90;99.90
25112;DHT22;13092;51.996;4.458;2023-01-23T06:08:16;3.80;99.90
25112;DHT22;13092;51.996;4.458;2023-01-23T06:10:45;3.80;99.90
25112;DHT22;13092;51.996;4.458;2023-01-23T06:13:16;3.80;99.90
25112;DHT22;13092;51.996;4.458;2023-01-23T06:15:47;3.90;99.90
25112;DHT22;13092;51.996;4.458;2023-01-23T06:18:15;3.90;99.90
25112;DHT22;13092;51.996;4.458;2023-01-23T06:20:46;3.70;99.90
25112;DHT22;13092;51.996;4.458;2023-01-23T06:23:15;3.80;99.90
25112;DHT22;13092;51.996;4.458;2023-01-23T06:25:44;3.90;99.90
25112;DHT22;13092;51.996;4.458;2023-01-23T06:28:12;3.70;99.90
25112;DHT22;13092;51.996;4.458;2023-01-23T06:30:41;3.90;99.90
25112;DHT22;13092;51.996;4.458;2023-01-23T06:33:10;3.90;99.90
25112;DHT22;13092;51.996;4.458;2023-01-23T06:35:39;3.90;99.90
25112;DHT22;13092;51.996;4.458;2023-01-23T06:38:07;3.90;99.90
25112;DHT22;13092;51.996;4.458;2023-01-23T06:40:36;3.90;99.90
25112;DHT22;13092;51.996;4.458;2023-01-23T06:43:07;4.20;99.90
25112;DHT22;13092;51.996;4.458;2023-01-23T06:45:35;3.90;99.90
25112;DHT22;13092;51.996;4.458;2023-01-23T06:48:10;3.90;99.90
25112;DHT22;13092;51.996;4.458;2023-01-23T06:50:39;3.90;99.90
25112;DHT22;13092;51.996;4.458;2023-01-23T06:53:08;4.00;99.90
25112;DHT22;13092;51.996;4.458;2023-01-23T06:55:37;4.00;99.90
25112;DHT22;13092;51.996;4.458;2023-01-23T06:58:06;3.90;99.90
25112;DHT22;13092;51.996;4.458;2023-01-23T07:00:34;3.90;99.90
25112;DHT22;13092;51.996;4.458;2023-01-23T07:03:05;4.00;99.90
25112;DHT22;13092;51.996;4.458;2023-01-23T07:05:36;3.90;99.90
25112;DHT22;13092;51.996;4.458;2023-01-23T07:08:07;3.90;99.90
25112;DHT22;13092;51.996;4.458;2023-01-23T07:10:36;3.90;99.90
25112;DHT22;13092;51.996;4.458;2023-01-23T07:13:05;3.90;99.90
25112;DHT22;13092;51.996;4.458;2023-01-23T07:15:34;3.80;99.90
25112;DHT22;13092;51.996;4.458;2023-01-23T07:18:07;3.80;99.90
25112;DHT22;13092;51.996;4.458;2023-01-23T07:20:37;3.80;99.90
25112;DHT22;13092;51.996;4.458;2023-01-23T07:23:08;3.80;99.90
25112;DHT22;13092;51.996;4.458;2023-01-23T07:25:37;3.80;99.90
25112;DHT22;13092;51.996;4.458;2023-01-23T07:28:06;4.00;99.90
25112;DHT22;13092;51.996;4.458;2023-01-23T07:30:35;3.90;99.90
25112;DHT22;13092;51.996;4.458;2023-01-23T07:33:04;3.90;99.90
25112;DHT22;13092;51.996;4.458;2023-01-23T07:35:33;4.00;99.90
25112;DHT22;13092;51.996;4.458;2023-01-23T07:38:03;3.90;99.90
25112;DHT22;13092;51.996;4.458;2023-01-23T07:40:31;3.90;99.90
25112;DHT22;13092;51.996;4.458;2023-01-23T07:43:00;4.10;99.90
25112;DHT22;13092;51.996;4.458;2023-01-23T07:45:28;4.00;99.90
25112;DHT22;13092;51.996;4.458;2023-01-23T07:47:57;4.00;99.90
25112;DHT22;13092;51.996;4.458;2023-01-23T07:50:25;3.90;99.90
25112;DHT22;13092;51.996;4.458;2023-01-23T07:52:59;3.90;99.90
25112;DHT22;13092;51.996;4.458;2023-01-23T07:55:33;3.90;99.90
25112;DHT22;13092;51.996;4.458;2023-01-23T07:58:06;3.90;99.90
25112;DHT22;13092;51.996;4.458;2023-01-23T08:00:38;3.90;99.90
25112;DHT22;13092;51.996;4.458;2023-01-23T08:03:07;3.90;99.90
25112;DHT22;13092;51.996;4.458;2023-01-23T08:05:36;3.90;99.90
25112;DHT22;13092;51.996;4.458;2023-01-23T08:08:07;3.80;99.90
25112;DHT22;13092;51.996;4.458;2023-01-23T08:10:42;4.00;99.90
25112;DHT22;13092;51.996;4.458;2023-01-23T08:13:12;4.00;99.90
25112;DHT22;13092;51.996;4.458;2023-01-23T08:15:40;3.90;99.90
25112;DHT22;13092;51.996;4.458;2023-01-23T08:18:09;3.90;99.90
25112;DHT22;13092;51.996;4.458;2023-01-23T08:20:38;3.90;99.90
25112;DHT22;13092;51.996;4.458;2023-01-23T08:23:08;3.90;99.90
25112;DHT22;13092;51.996;4.458;2023-01-23T08:25:40;3.90;99.90
25112;DHT22;13092;51.996;4.458;2023-01-23T08:28:10;3.90;99.90
25112;DHT22;13092;51.996;4.458;2023-01-23T08:30:42;3.90;99.90
25112;DHT22;13092;51.996;4.458;2023-01-23T08:33:13;3.90;99.90
25112;DHT22;13092;51.996;4.458;2023-01-23T08:35:53;3.90;99.90
25112;DHT22;13092;51.996;4.458;2023-01-23T08:38:26;4.00;99.90
25112;DHT22;13092;51.996;4.458;2023-01-23T08:40:58;4.00;99.90
25112;DHT22;13092;51.996;4.458;2023-01-23T08:43:30;4.00;99.90
25112;DHT22;13092;51.996;4.458;2023-01-23T08:45:59;4.00;99.90
25112;DHT22;13092;51.996;4.458;2023-01-23T08:48:35;3.90;99.90
25112;DHT22;13092;51.996;4.458;2023-01-23T08:51:06;3.90;99.90
25112;DHT22;13092;51.996;4.458;2023-01-23T08:53:36;3.90;99.90
25112;DHT22;13092;51.996;4.458;2023-01-23T08:56:14;3.90;99.90
25112;DHT22;13092;51.996;4.458;2023-01-23T08:58:46;3.90;99.90
25112;DHT22;13092;51.996;4.458;2023-01-23T09:01:49;3.90;99.90
25112;DHT22;13092;51.996;4.458;2023-01-23T09:04:37;3.90;99.90
25112;DHT22;13092;51.996;4.458;2023-01-23T09:07:41;3.90;99.90
25112;DHT22;13092;51.996;4.458;2023-01-23T09:10:49;3.90;99.90
25112;DHT22;13092;51.996;4.458;2023-01-23T09:14:07;4.00;99.90
25112;DHT22;13092;51.996;4.458;2023-01-23T09:20:39;4.10;99.90
25112;DHT22;13092;51.996;4.458;2023-01-23T09:23:46;4.10;99.90
25112;DHT22;13092;51.996;4.458;2023-01-23T09:26:14;4.40;99.90
25112;DHT22;13092;51.996;4.458;2023-01-23T09:28:45;4.30;99.90
25112;DHT22;13092;51.996;4.458;2023-01-23T09:31:15;4.30;99.90
25112;DHT22;13092;51.996;4.458;2023-01-23T09:33:44;4.50;99.90
25112;DHT22;13092;51.996;4.458;2023-01-23T09:36:12;4.40;99.90
25112;DHT22;13092;51.996;4.458;2023-01-23T09:38:47;4.40;99.90
25112;DHT22;13092;51.996;4.458;2023-01-23T09:57:34;4.70;99.90
25112;DHT22;13092;51.996;4.458;2023-01-23T10:00:06;4.70;99.90
25112;DHT22;13092;51.996;4.458;2023-01-23T10:02:41;4.70;99.90
25112;DHT22;13092;51.996;4.458;2023-01-23T10:05:13;4.80;99.90
25112;DHT22;13092;51.996;4.458;2023-01-23T10:07:53;4.80;99.90
25112;DHT22;13092;51.996;4.458;2023-01-23T10:10:50;4.80;99.90
25112;DHT22;13092;51.996;4.458;2023-01-23T10:13:41;4.90;99.90
25112;DHT22;13092;51.996;4.458;2023-01-23T10:16:43;4.90;99.90
25112;DHT22;13092;51.996;4.458;2023-01-23T10:23:00;4.80;99.90
25112;DHT22;13092;51.996;4.458;2023-01-23T10:25:39;4.80;99.90
25112;DHT22;13092;51.996;4.458;2023-01-23T10:28:40;5.00;99.90
25112;DHT22;13092;51.996;4.458;2023-01-23T10:31:37;4.90;99.90
25112;DHT22;13092;51.996;4.458;2023-01-23T10:34:27;4.90;99.90
25112;DHT22;13092;51.996;4.458;2023-01-23T10:37:14;4.90;99.90
25112;DHT22;13092;51.996;4.458;2023-01-23T10:39:49;4.90;99.90
25112;DHT22;13092;51.996;4.458;2023-01-23T10:42:21;4.90;99.90
25112;DHT22;13092;51.996;4.458;2023-01-23T10:44:53;5.20;99.90
25112;DHT22;13092;51.996;4.458;2023-01-23T10:47:26;5.10;99.90
25112;DHT22;13092;51.996;4.458;2023-01-23T11:14:31;5.10;99.90
25112;DHT22;13092;51.996;4.458;2023-01-23T11:18:03;5.20;99.90
25112;DHT22;13092;51.996;4.458;2023-01-23T11:21:53;5.30;99.90
25112;DHT22;13092;51.996;4.458;2023-01-23T11:25:29;5.30;99.90
25112;DHT22;13092;51.996;4.458;2023-01-23T11:29:22;5.40;99.90
25112;DHT22;13092;51.996;4.458;2023-01-23T11:32:42;5.40;99.90
25112;DHT22;13092;51.996;4.458;2023-01-23T11:36:01;5.40;99.90
25112;DHT22;13092;51.996;4.458;2023-01-23T11:39:00;5.50;99.90
25112;DHT22;13092;51.996;4.458;2023-01-23T11:41:48;5.40;99.90
25112;DHT22;13092;51.996;4.458;2023-01-23T11:47:56;5.60;99.90
25112;DHT22;13092;51.996;4.458;2023-01-23T11:50:39;5.30;99.90
25112;DHT22;13092;51.996;4.458;2023-01-23T11:54:12;5.30;99.90
25112;DHT22;13092;51.996;4.458;2023-01-23T11:57:19;5.50;99.90
25112;DHT22;13092;51.996;4.458;2023-01-23T12:00:10;5.30;99.90
25112;DHT22;13092;51.996;4.458;2023-01-23T12:03:13;5.30;99.90
25112;DHT22;13092;51.996;4.458;2023-01-23T12:06:08;5.40;99.90
25112;DHT22;13092;51.996;4.458;2023-01-23T12:08:51;5.40;99.90
25112;DHT22;13092;51.996;4.458;2023-01-23T12:11:20;5.60;99.90
25112;DHT22;13092;51.996;4.458;2023-01-23T12:14:03;5.40;99.90
25112;DHT22;13092;51.996;4.458;2023-01-23T12:16:48;5.40;99.90
25112;DHT22;13092;51.996;4.458;2023-01-23T12:19:28;5.40;99.90
25112;DHT22;13092;51.996;4.458;2023-01-23T12:22:09;5.40;99.90
25112;DHT22;13092;51.996;4.458;2023-01-23T12:24:52;5.60;99.90
25112;DHT22;13092;51.996;4.458;2023-01-23T12:27:35;5.50;99.90
25112;DHT22;13092;51.996;4.458;2023-01-23T12:30:37;5.50;99.90
25112;DHT22;13092;51.996;4.458;2023-01-23T12:33:20;5.60;99.90
25112;DHT22;13092;51.996;4.458;2023-01-23T12:35:59;5.60;99.90
25112;DHT22;13092;51.996;4.458;2023-01-23T12:38:40;5.60;99.90
25112;DHT22;13092;51.996;4.458;2023-01-23T12:41:18;5.70;99.90
25112;DHT22;13092;51.996;4.458;2023-01-23T12:43:56;5.60;99.90
25112;DHT22;13092;51.996;4.458;2023-01-23T12:46:31;5.60;99.90
25112;DHT22;13092;51.996;4.458;2023-01-23T12:49:13;5.60;99.90
25112;DHT22;13092;51.996;4.458;2023-01-23T12:51:49;5.60;99.90
25112;DHT22;13092;51.996;4.458;2023-01-23T12:54:26;5.60;99.90
25112;DHT22;13092;51.996;4.458;2023-01-23T12:56:57;5.60;99.90
25112;DHT22;13092;51.996;4.458;2023-01-23T12:59:29;5.60;99.90
25112;DHT22;13092;51.996;4.458;2023-01-23T13:02:08;5.70;99.90
25112;DHT22;13092;51.996;4.458;2023-01-23T13:04:58;5.70;99.90
25112;DHT22;13092;51.996;4.458;2023-01-23T13:07:36;5.70;99.90
25112;DHT22;13092;51.996;4.458;2023-01-23T13:10:39;5.80;99.90
25112;DHT22;13092;51.996;4.458;2023-01-23T13:13:26;5.70;99.90
25112;DHT22;13092;51.996;4.458;2023-01-23T13:16:04;5.60;99.90
25112;DHT22;13092;51.996;4.458;2023-01-23T13:18:38;5.50;99.90
25112;DHT22;13092;51.996;4.458;2023-01-23T13:21:24;5.50;99.90
25112;DHT22;13092;51.996;4.458;2023-01-23T13:24:28;5.60;99.90
25112;DHT22;13092;51.996;4.458;2023-01-23T13:27:40;5.60;99.90
25112;DHT22;13092;51.996;4.458;2023-01-23T13:30:40;5.70;99.90
25112;DHT22;13092;51.996;4.458;2023-01-23T13:36:35;5.90;99.90
25112;DHT22;13092;51.996;4.458;2023-01-23T13:39:22;6.00;99.90
25112;DHT22;13092;51.996;4.458;2023-01-23T13:45:13;6.00;99.90
25112;DHT22;13092;51.996;4.458;2023-01-23T13:47:50;6.00;99.90
25112;DHT22;13092;51.996;4.458;2023-01-23T13:50:53;5.90;99.90
25112;DHT22;13092;51.996;4.458;2023-01-23T13:53:45;6.20;99.90
25112;DHT22;13092;51.996;4.458;2023-01-23T13:56:48;6.10;99.90
25112;DHT22;13092;51.996;4.458;2023-01-23T13:59:36;6.10;99.90
25112;DHT22;13092;51.996;4.458;2023-01-23T14:05:37;6.20;99.90
25112;DHT22;13092;51.996;4.458;2023-01-23T14:08:21;6.30;99.90
25112;DHT22;13092;51.996;4.458;2023-01-23T14:14:34;6.30;99.90
25112;DHT22;13092;51.996;4.458;2023-01-23T14:17:38;6.40;99.90
25112;DHT22;13092;51.996;4.458;2023-01-23T14:20:20;6.30;99.90
25112;DHT22;13092;51.996;4.458;2023-01-23T14:22:53;6.30;99.90
25112;DHT22;13092;51.996;4.458;2023-01-23T14:25:22;6.20;99.90
25112;DHT22;13092;51.996;4.458;2023-01-23T14:28:01;6.30;99.90
25112;DHT22;13092;51.996;4.458;2023-01-23T14:30:32;6.20;99.90
25112;DHT22;13092;51.996;4.458;2023-01-23T14:33:10;6.20;99.90
25112;DHT22;13092;51.996;4.458;2023-01-23T14:35:39;6.20;99.90
25112;DHT22;13092;51.996;4.458;2023-01-23T14:38:17;6.20;99.90
25112;DHT22;13092;51.996;4.458;2023-01-23T14:40:47;6.20;99.90
25112;DHT22;13092;51.996;4.458;2023-01-23T14:43:19;6.30;99.90
25112;DHT22;13092;51.996;4.458;2023-01-23T14:45:59;6.30;99.90
25112;DHT22;13092;51.996;4.458;2023-01-23T14:48:32;6.30;99.90
25112;DHT22;13092;51.996;4.458;2023-01-23T14:51:06;6.30;99.90
25112;DHT22;13092;51.996;4.458;2023-01-23T14:53:38;6.30;99.90
25112;DHT22;13092;51.996;4.458;2023-01-23T14:56:09;6.20;99.90
25112;DHT22;13092;51.996;4.458;2023-01-23T14:58:39;6.20;99.90
25112;DHT22;13092;51.996;4.458;2023-01-23T15:01:11;6.30;99.90
25112;DHT22;13092;51.996;4.458;2023-01-23T15:03:42;6.30;99.90
25112;DHT22;13092;51.996;4.458;2023-01-23T15:06:20;6.30;99.90
25112;DHT22;13092;51.996;4.458;2023-01-23T15:08:52;6.30;99.90
25112;DHT22;13092;51.996;4.458;2023-01-23T15:11:25;6.30;99.90
25112;DHT22;13092;51.996;4.458;2023-01-23T15:13:58;6.50;99.90
25112;DHT22;13092;51.996;4.458;2023-01-23T15:16:33;6.60;99.90
25112;DHT22;13092;51.996;4.458;2023-01-23T15:19:18;6.40;99.90
25112;DHT22;13092;51.996;4.458;2023-01-23T15:21:49;6.40;99.90
25112;DHT22;13092;51.996;4.458;2023-01-23T15:24:25;6.40;99.90
25112;DHT22;13092;51.996;4.458;2023-01-23T15:27:01;6.40;99.90
25112;DHT22;13092;51.996;4.458;2023-01-23T15:29:38;6.30;99.90
25112;DHT22;13092;51.996;4.458;2023-01-23T15:32:18;6.30;99.90
25112;DHT22;13092;51.996;4.458;2023-01-23T15:34:53;6.30;99.90
25112;DHT22;13092;51.996;4.458;2023-01-23T15:37:26;6.20;99.90
25112;DHT22;13092;51.996;4.458;2023-01-23T15:39:57;6.10;99.90
25112;DHT22;13092;51.996;4.458;2023-01-23T15:42:30;6.00;99.90
25112;DHT22;13092;51.996;4.458;2023-01-23T15:44:59;5.90;99.90
25112;DHT22;13092;51.996;4.458;2023-01-23T15:47:33;6.00;99.90
25112;DHT22;13092;51.996;4.458;2023-01-23T15:50:05;6.00;99.90
25112;DHT22;13092;51.996;4.458;2023-01-23T15:52:45;5.90;99.90
25112;DHT22;13092;51.996;4.458;2023-01-23T15:55:15;6.00;99.90
25112;DHT22;13092;51.996;4.458;2023-01-23T15:57:44;5.80;99.90
25112;DHT22;13092;51.996;4.458;2023-01-23T16:00:14;5.80;99.90
25112;DHT22;13092;51.996;4.458;2023-01-23T16:02:45;5.70;99.90
25112;DHT22;13092;51.996;4.458;2023-01-23T16:05:24;5.70;99.90
25112;DHT22;13092;51.996;4.458;2023-01-23T16:07:57;5.70;99.90
25112;DHT22;13092;51.996;4.458;2023-01-23T16:10:29;5.60;99.90
25112;DHT22;13092;51.996;4.458;2023-01-23T16:12:58;5.70;99.90
25112;DHT22;13092;51.996;4.458;2023-01-23T16:15:33;5.60;99.90
25112;DHT22;13092;51.996;4.458;2023-01-23T16:18:03;5.60;99.90
25112;DHT22;13092;51.996;4.458;2023-01-23T16:20:33;5.60;99.90
25112;DHT22;13092;51.996;4.458;2023-01-23T16:23:04;5.50;99.90
25112;DHT22;13092;51.996;4.458;2023-01-23T16:25:40;5.50;99.90
25112;DHT22;13092;51.996;4.458;2023-01-23T16:28:13;5.50;99.90
25112;DHT22;13092;51.996;4.458;2023-01-23T16:30:42;5.50;99.90
25112;DHT22;13092;51.996;4.458;2023-01-23T16:33:13;5.40;99.90
25112;DHT22;13092;51.996;4.458;2023-01-23T16:35:52;5.40;99.90
25112;DHT22;13092;51.996;4.458;2023-01-23T16:38:22;5.30;99.90
25112;DHT22;13092;51.996;4.458;2023-01-23T16:40:52;5.30;99.90
25112;DHT22;13092;51.996;4.458;2023-01-23T16:43:22;5.20;99.90
25112;DHT22;13092;51.996;4.458;2023-01-23T16:45:50;5.20;99.90
25112;DHT22;13092;51.996;4.458;2023-01-23T16:48:24;5.10;99.90
25112;DHT22;13092;51.996;4.458;2023-01-23T16:50:57;5.10;99.90
25112;DHT22;13092;51.996;4.458;2023-01-23T16:53:28;5.10;99.90
25112;DHT22;13092;51.996;4.458;2023-01-23T16:55:59;5.00;99.90
25112;DHT22;13092;51.996;4.458;2023-01-23T16:58:31;5.00;99.90
25112;DHT22;13092;51.996;4.458;2023-01-23T17:01:06;5.10;99.90
25112;DHT22;13092;51.996;4.458;2023-01-23T17:03:38;5.00;99.90
25112;DHT22;13092;51.996;4.458;2023-01-23T17:06:11;5.00;99.90
25112;DHT22;13092;51.996;4.458;2023-01-23T17:08:40;5.20;99.90
25112;DHT22;13092;51.996;4.458;2023-01-23T17:11:16;5.10;99.90
25112;DHT22;13092;51.996;4.458;2023-01-23T17:13:46;5.00;99.90
25112;DHT22;13092;51.996;4.458;2023-01-23T17:16:16;5.00;99.90
25112;DHT22;13092;51.996;4.458;2023-01-23T17:18:57;5.00;99.90
25112;DHT22;13092;51.996;4.458;2023-01-23T17:21:31;5.00;99.90
25112;DHT22;13092;51.996;4.458;2023-01-23T17:24:00;5.00;99.90
25112;DHT22;13092;51.996;4.458;2023-01-23T17:26:29;5.00;99.90
25112;DHT22;13092;51.996;4.458;2023-01-23T17:28:57;4.90;99.90
25112;DHT22;13092;51.996;4.458;2023-01-23T17:31:27;4.90;99.90
25112;DHT22;13092;51.996;4.458;2023-01-23T17:34:01;5.00;99.90
25112;DHT22;13092;51.996;4.458;2023-01-23T17:36:30;5.00;99.90
25112;DHT22;13092;51.996;4.458;2023-01-23T17:38:58;5.00;99.90
25112;DHT22;13092;51.996;4.458;2023-01-23T17:41:27;4.90;99.90
25112;DHT22;13092;51.996;4.458;2023-01-23T17:43:58;4.90;99.90
25112;DHT22;13092;51.996;4.458;2023-01-23T17:46:28;4.70;99.90
25112;DHT22;13092;51.996;4.458;2023-01-23T17:49:02;4.70;99.90
25112;DHT22;13092;51.996;4.458;2023-01-23T17:51:31;4.70;99.90
25112;DHT22;13092;51.996;4.458;2023-01-23T17:54:00;4.70;99.90
25112;DHT22;13092;51.996;4.458;2023-01-23T17:56:28;4.70;99.90
25112;DHT22;13092;51.996;4.458;2023-01-23T17:58:57;4.70;99.90
25112;DHT22;13092;51.996;4.458;2023-01-23T18:01:25;4.70;99.90
25112;DHT22;13092;51.996;4.458;2023-01-23T18:03:54;4.70;99.90
25112;DHT22;13092;51.996;4.458;2023-01-23T18:06:27;4.60;99.90
25112;DHT22;13092;51.996;4.458;2023-01-23T18:08:58;4.50;99.90
25112;DHT22;13092;51.996;4.458;2023-01-23T18:11:26;4.60;99.90
25112;DHT22;13092;51.996;4.458;2023-01-23T18:19:41;4.60;99.90
25112;DHT22;13092;51.996;4.458;2023-01-23T18:22:12;4.60;99.90
25112;DHT22;13092;51.996;4.458;2023-01-23T18:24:41;4.60;99.90
25112;DHT22;13092;51.996;4.458;2023-01-23T18:27:24;4.60;99.90
25112;DHT22;13092;51.996;4.458;2023-01-23T18:41:42;4.70;99.90
25112;DHT22;13092;51.996;4.458;2023-01-23T18:44:47;4.60;99.90
25112;DHT22;13092;51.996;4.458;2023-01-23T18:47:44;4.60;99.90
25112;DHT22;13092;51.996;4.458;2023-01-23T18:51:13;4.60;99.90
25112;DHT22;13092;51.996;4.458;2023-01-23T18:54:23;4.70;99.90
25112;DHT22;13092;51.996;4.458;2023-01-23T18:57:26;4.80;99.90
25112;DHT22;13092;51.996;4.458;2023-01-23T19:00:26;4.80;99.90
25112;DHT22;13092;51.996;4.458;2023-01-23T19:06:24;4.90;99.90
25112;DHT22;13092;51.996;4.458;2023-01-23T19:12:17;5.10;99.90
25112;DHT22;13092;51.996;4.458;2023-01-23T19:15:16;5.00;99.90
25112;DHT22;13092;51.996;4.458;2023-01-23T19:21:15;5.00;99.90
25112;DHT22;13092;51.996;4.458;2023-01-23T19:23:50;5.00;99.90
25112;DHT22;13092;51.996;4.458;2023-01-23T19:26:21;5.00;99.90
25112;DHT22;13092;51.996;4.458;2023-01-23T19:28:53;4.90;99.90
25112;DHT22;13092;51.996;4.458;2023-01-23T19:31:23;4.90;99.90
25112;DHT22;13092;51.996;4.458;2023-01-23T19:33:53;4.90;99.90